createdAt,value
2022-09-30T00:00:56.655Z,93825.25
2022-09-30T00:03:24.306Z,93830.47
2022-09-30T00:06:07.614Z,93830.88
2022-09-30T00:08:34.984Z,93839.97
2022-09-30T00:11:06.044Z,93829.44
2022-09-30T00:13:35.635Z,93833.41
2022-09-30T00:16:02.454Z,93827.13
2022-09-30T00:18:30.071Z,93821.28
2022-09-30T00:20:57.043Z,93827.84
2022-09-30T00:23:24.178Z,93830.53
2022-09-30T00:25:51.726Z,93851.63
2022-09-30T00:28:18.292Z,93846.66
2022-09-30T00:30:44.931Z,93845.38
2022-09-30T00:33:11.607Z,93845.75
2022-09-30T00:35:38.366Z,93839.91
2022-09-30T00:38:05.170Z,93839.44
2022-09-30T00:40:31.964Z,93829.34
2022-09-30T00:43:00.127Z,93825.06
2022-09-30T00:45:33.142Z,93824.69
2022-09-30T00:48:15.373Z,93827.00
2022-09-30T00:50:49.749Z,93828.94
2022-09-30T00:53:30.977Z,93831.19
2022-09-30T00:56:04.748Z,93836.50
2022-09-30T00:58:36.063Z,93836.47
2022-09-30T01:01:03.167Z,93835.66
2022-09-30T01:03:40.566Z,93834.91
2022-09-30T01:06:07.625Z,93842.47
2022-09-30T01:08:37.366Z,93831.72
2022-09-30T01:11:07.971Z,93833.38
2022-09-30T01:13:37.945Z,93823.72
2022-09-30T01:16:23.098Z,93825.25
2022-09-30T01:19:17.621Z,93822.94
2022-09-30T01:21:59.208Z,93837.28
2022-09-30T01:24:47.836Z,93839.25
2022-09-30T01:27:39.118Z,93835.53
2022-09-30T01:30:08.642Z,93838.50
2022-09-30T01:32:38.120Z,93838.56
2022-09-30T01:35:24.158Z,93838.16
2022-09-30T01:38:11.623Z,93833.50
2022-09-30T01:41:05.805Z,93832.34
2022-09-30T01:44:04.995Z,93837.00
2022-09-30T01:46:44.563Z,93835.34
2022-09-30T01:49:27.579Z,93831.25
2022-09-30T01:51:59.989Z,93832.44
2022-09-30T01:54:55.158Z,93829.69
2022-09-30T01:58:12.661Z,93837.16
2022-09-30T02:00:44.256Z,93832.19
2022-09-30T02:03:17.831Z,93842.22
2022-09-30T02:05:57.840Z,93836.56
2022-09-30T02:08:36.764Z,93837.41
2022-09-30T02:11:10.893Z,93844.03
2022-09-30T02:13:49.820Z,93836.94
2022-09-30T02:16:24.408Z,93845.31
2022-09-30T02:18:55.720Z,93853.41
2022-09-30T02:21:33.645Z,93840.75
2022-09-30T02:24:06.085Z,93850.03
2022-09-30T02:26:37.659Z,93849.28
2022-09-30T02:29:17.134Z,93851.13
2022-09-30T02:31:47.724Z,93848.78
2022-09-30T02:34:25.226Z,93854.63
2022-09-30T02:36:56.213Z,93843.88
2022-09-30T02:39:31.933Z,93846.09
2022-09-30T02:42:04.642Z,93839.03
2022-09-30T02:44:31.922Z,93844.44
2022-09-30T02:47:10.818Z,93832.13
2022-09-30T02:49:48.562Z,93832.47
2022-09-30T02:52:47.273Z,93845.28
2022-09-30T02:55:25.649Z,93846.25
2022-09-30T02:57:55.418Z,93849.13
2022-09-30T03:00:22.132Z,93850.91
2022-09-30T03:02:50.204Z,93854.78
2022-09-30T03:05:17.637Z,93865.66
2022-09-30T03:07:44.314Z,93872.22
2022-09-30T03:10:16.154Z,93874.97
2022-09-30T03:13:10.888Z,93865.69
2022-09-30T03:16:01.213Z,93867.59
2022-09-30T03:18:52.520Z,93860.63
2022-09-30T03:21:25.271Z,93870.22
2022-09-30T03:24:12.533Z,93870.22
2022-09-30T03:26:47.993Z,93874.75
2022-09-30T03:29:14.837Z,93871.38
2022-09-30T03:31:51.002Z,93866.44
2022-09-30T03:34:42.165Z,93868.31
2022-09-30T03:37:34.721Z,93871.69
2022-09-30T03:40:25.213Z,93859.50
2022-09-30T03:42:58.419Z,93861.75
2022-09-30T03:45:50.122Z,93874.50
2022-09-30T03:48:19.475Z,93884.06
2022-09-30T03:50:46.740Z,93888.66
2022-09-30T03:53:13.821Z,93894.78
2022-09-30T03:55:52.289Z,93891.44
2022-09-30T03:58:23.326Z,93903.41
2022-09-30T04:00:57.221Z,93886.09
2022-09-30T04:03:23.959Z,93899.19
2022-09-30T04:05:50.631Z,93900.38
2022-09-30T04:08:17.668Z,93898.00
2022-09-30T04:10:44.493Z,93885.66
2022-09-30T04:13:11.867Z,93879.00
2022-09-30T04:15:38.827Z,93884.16
2022-09-30T04:18:05.823Z,93884.50
2022-09-30T04:20:32.897Z,93893.34
2022-09-30T04:23:01.102Z,93878.75
2022-09-30T04:25:28.414Z,93873.28
2022-09-30T04:27:56.510Z,93880.63
2022-09-30T04:30:26.378Z,93895.72
2022-09-30T04:32:54.786Z,93898.34
2022-09-30T04:35:21.718Z,93912.22
2022-09-30T04:37:48.563Z,93905.09
2022-09-30T04:40:16.370Z,93900.03
2022-09-30T04:42:44.084Z,93904.34
2022-09-30T04:45:12.273Z,93908.94
2022-09-30T04:47:40.004Z,93912.78
2022-09-30T04:50:07.515Z,93924.34
2022-09-30T04:52:34.419Z,93924.34
2022-09-30T04:55:01.010Z,93938.94
2022-09-30T04:57:27.638Z,93946.66
2022-09-30T04:59:54.277Z,93942.06
2022-09-30T05:02:21.213Z,93945.47
2022-09-30T05:04:47.928Z,93933.97
2022-09-30T05:07:14.517Z,93936.28
2022-09-30T05:09:41.220Z,93932.81
2022-09-30T05:12:08.243Z,93932.78
2022-09-30T05:14:34.843Z,93938.19
2022-09-30T05:17:02.216Z,93955.91
2022-09-30T05:19:29.494Z,93956.31
2022-09-30T05:21:56.233Z,93954.25
2022-09-30T05:24:22.884Z,93959.69
2022-09-30T05:26:49.496Z,93959.75
2022-09-30T05:29:16.115Z,93959.03
2022-09-30T05:31:43.190Z,93955.53
2022-09-30T05:34:12.627Z,93956.69
2022-09-30T05:36:39.250Z,93960.50
2022-09-30T05:39:05.870Z,93969.75
2022-09-30T05:41:32.755Z,93977.47
2022-09-30T05:44:01.274Z,93977.50
2022-09-30T05:46:28.367Z,93963.66
2022-09-30T05:48:55.431Z,93977.50
2022-09-30T05:51:22.194Z,93979.00
2022-09-30T05:53:48.809Z,93984.34
2022-09-30T05:56:18.126Z,93979.72
2022-09-30T05:58:44.809Z,93981.34
2022-09-30T06:01:14.214Z,93988.28
2022-09-30T06:03:45.557Z,93987.09
2022-09-30T06:06:12.929Z,93986.72
2022-09-30T06:08:40.327Z,93995.16
2022-09-30T06:11:13.241Z,93992.88
2022-09-30T06:13:41.683Z,93989.47
2022-09-30T06:16:09.353Z,93987.56
2022-09-30T06:18:36.915Z,93999.09
2022-09-30T06:21:05.269Z,93991.78
2022-09-30T06:23:35.115Z,93998.34
2022-09-30T06:26:03.548Z,94012.22
2022-09-30T06:28:30.408Z,94007.56
2022-09-30T06:31:01.472Z,94015.97
2022-09-30T06:33:28.867Z,94001.34
2022-09-30T06:35:55.682Z,94010.69
2022-09-30T06:38:23.247Z,94034.94
2022-09-30T06:40:50.527Z,94010.56
2022-09-30T06:43:18.024Z,94029.00
2022-09-30T06:45:49.894Z,94034.44
2022-09-30T06:48:20.059Z,94033.50
2022-09-30T06:51:01.332Z,94039.53
2022-09-30T06:53:29.383Z,94055.63
2022-09-30T06:55:58.833Z,94058.81
2022-09-30T06:58:25.887Z,94053.78
2022-09-30T07:01:06.453Z,94051.28
2022-09-30T07:03:35.750Z,94058.09
2022-09-30T07:06:05.515Z,94054.38
2022-09-30T07:08:34.430Z,94062.00
2022-09-30T07:11:04.498Z,94072.72
2022-09-30T07:13:31.304Z,94066.59
2022-09-30T07:15:58.190Z,94061.69
2022-09-30T07:18:28.086Z,94073.13
2022-09-30T07:20:56.298Z,94072.63
2022-09-30T07:23:27.038Z,94079.72
2022-09-30T07:26:00.331Z,94081.22
2022-09-30T07:28:32.047Z,94084.38
2022-09-30T07:31:30.754Z,94080.59
2022-09-30T07:33:52.842Z,94097.63
2022-09-30T07:36:31.871Z,94079.69
2022-09-30T07:39:00.381Z,94083.00
2022-09-30T07:41:29.230Z,94078.69
2022-09-30T07:43:59.771Z,94077.38
2022-09-30T07:46:32.390Z,94087.38
2022-09-30T07:49:04.178Z,94082.59
2022-09-30T07:51:35.848Z,94088.28
2022-09-30T07:54:07.830Z,94089.56
2022-09-30T07:56:57.814Z,94083.56
2022-09-30T07:59:23.171Z,94084.66
2022-09-30T08:01:50.847Z,94093.50
2022-09-30T08:04:19.779Z,94102.47
2022-09-30T08:06:50.142Z,94098.00
2022-09-30T08:09:19.346Z,94104.78
2022-09-30T08:11:46.039Z,94097.19
2022-09-30T08:14:16.697Z,94103.44
2022-09-30T08:16:43.447Z,94104.75
2022-09-30T08:19:18.073Z,94107.66
2022-09-30T08:21:45.389Z,94113.84
2022-09-30T08:24:13.014Z,94109.19
2022-09-30T08:26:40.400Z,94115.63
2022-09-30T08:29:07.513Z,94111.47
2022-09-30T08:31:34.777Z,94125.63
2022-09-30T08:34:03.171Z,94130.41
2022-09-30T08:36:30.412Z,94127.41
2022-09-30T08:38:57.186Z,94133.94
2022-09-30T08:41:43.157Z,94116.38
2022-09-30T08:44:46.426Z,94127.59
2022-09-30T08:47:31.519Z,94130.41
2022-09-30T08:50:16.809Z,94129.16
2022-09-30T08:52:54.127Z,94138.94
2022-09-30T08:55:24.267Z,94129.25
2022-09-30T08:57:53.042Z,94122.94
2022-09-30T09:00:21.006Z,94127.84
2022-09-30T09:02:57.299Z,94129.59
2022-09-30T09:06:02.489Z,94135.38
2022-09-30T09:08:44.243Z,94149.09
2022-09-30T09:11:31.255Z,94137.19
2022-09-30T09:14:31.600Z,94146.34
2022-09-30T09:17:16.413Z,94148.97
2022-09-30T09:19:49.566Z,94150.09
2022-09-30T09:22:18.222Z,94169.41
2022-09-30T09:24:49.198Z,94157.19
2022-09-30T09:27:44.090Z,94160.84
2022-09-30T09:30:15.697Z,94163.91
2022-09-30T09:32:44.302Z,94157.91
2022-09-30T09:35:17.505Z,94139.78
2022-09-30T09:38:09.274Z,94147.78
2022-09-30T09:40:57.392Z,94155.38
2022-09-30T09:44:02.743Z,94157.94
2022-09-30T09:46:46.624Z,94161.72
2022-09-30T09:49:23.587Z,94140.69
2022-09-30T09:51:50.193Z,94142.16
2022-09-30T09:54:21.480Z,94143.94
2022-09-30T09:56:48.133Z,94129.25
2022-09-30T09:59:20.227Z,94143.72
2022-09-30T10:01:50.629Z,94140.50
2022-09-30T10:04:27.497Z,94156.06
2022-09-30T10:06:55.397Z,94153.56
2022-09-30T10:09:31.385Z,94147.50
2022-09-30T10:12:25.944Z,94139.81
2022-09-30T10:14:58.041Z,94139.81
2022-09-30T10:17:29.673Z,94146.38
2022-09-30T10:20:14.774Z,94139.19
2022-09-30T10:22:41.693Z,94140.28
2022-09-30T10:25:13.993Z,94136.13
2022-09-30T10:28:20.890Z,94128.03
2022-09-30T10:31:04.177Z,94122.44
2022-09-30T10:33:41.819Z,94123.44
2022-09-30T10:36:13.821Z,94127.66
2022-09-30T10:39:19.747Z,94116.59
2022-09-30T10:41:46.540Z,94118.53
2022-09-30T10:44:19.946Z,94122.53
2022-09-30T10:46:49.604Z,94118.34
2022-09-30T10:49:31.248Z,94121.88
2022-09-30T10:52:00.133Z,94133.91
2022-09-30T10:54:47.230Z,94129.38
2022-09-30T10:57:33.559Z,94124.22
2022-09-30T11:00:07.937Z,94135.97
2022-09-30T11:02:37.392Z,94137.75
2022-09-30T11:05:19.194Z,94145.75
2022-09-30T11:08:13.217Z,94138.81
2022-09-30T11:10:53.846Z,94139.06
2022-09-30T11:13:49.188Z,94129.44
2022-09-30T11:16:24.933Z,94136.75
2022-09-30T11:19:28.035Z,94136.66
2022-09-30T11:22:09.033Z,94130.16
2022-09-30T11:24:42.491Z,94137.09
2022-09-30T11:27:17.833Z,94143.44
2022-09-30T11:30:34.789Z,94152.31
2022-09-30T11:33:17.410Z,94140.84
2022-09-30T11:36:14.996Z,94146.19
2022-09-30T11:39:11.588Z,94143.69
2022-09-30T11:41:42.269Z,94140.84
2022-09-30T11:44:23.602Z,94144.56
2022-09-30T11:47:19.140Z,94150.06
2022-09-30T11:49:51.504Z,94151.41
2022-09-30T11:52:47.201Z,94138.09
2022-09-30T11:55:42.683Z,94149.28
2022-09-30T11:58:36.566Z,94143.16
2022-09-30T12:01:13.405Z,94148.59
2022-09-30T12:03:48.238Z,94151.44
2022-09-30T12:06:40.707Z,94151.59
2022-09-30T12:09:25.431Z,94165.31
2022-09-30T12:11:57.738Z,94158.44
2022-09-30T12:14:33.469Z,94169.25
2022-09-30T12:17:03.593Z,94171.56
2022-09-30T12:19:40.044Z,94168.28
2022-09-30T12:22:16.323Z,94170.81
2022-09-30T12:24:47.702Z,94170.81
2022-09-30T12:27:41.651Z,94168.00
2022-09-30T12:30:23.104Z,94172.44
2022-09-30T12:32:56.179Z,94170.38
2022-09-30T12:35:43.996Z,94168.66
2022-09-30T12:38:39.336Z,94170.47
2022-09-30T12:41:15.253Z,94180.56
2022-09-30T12:43:41.787Z,94174.22
2022-09-30T12:46:42.264Z,94170.94
2022-09-30T12:49:15.895Z,94169.09
2022-09-30T12:51:44.886Z,94169.28
2022-09-30T12:54:24.728Z,94176.41
2022-09-30T12:57:00.514Z,94172.09
2022-09-30T12:59:32.618Z,94173.81
2022-09-30T13:02:02.726Z,94169.66
2022-09-30T13:04:33.376Z,94182.38
2022-09-30T13:06:59.953Z,94178.94
2022-09-30T13:09:55.298Z,94181.78
2022-09-30T13:12:41.112Z,94184.22
2022-09-30T13:15:29.272Z,94181.44
2022-09-30T13:18:25.433Z,94175.97
2022-09-30T13:20:57.568Z,94179.69
2022-09-30T13:23:49.209Z,94181.59
2022-09-30T13:26:27.989Z,94183.31
2022-09-30T13:29:01.858Z,94183.31
2022-09-30T13:31:32.550Z,94183.75
2022-09-30T13:34:02.014Z,94179.25
2022-09-30T13:36:40.928Z,94189.09
2022-09-30T13:39:40.366Z,94188.31
2022-09-30T13:42:06.883Z,94182.75
2022-09-30T13:44:40.257Z,94182.53
2022-09-30T13:47:29.965Z,94178.94
2022-09-30T13:50:04.212Z,94185.09
2022-09-30T13:52:34.367Z,94179.25
2022-09-30T13:55:29.166Z,94192.16
2022-09-30T13:58:48.219Z,94193.69
2022-09-30T14:01:49.873Z,94195.97
2022-09-30T14:04:55.200Z,94185.94
2022-09-30T14:07:43.665Z,94195.09
2022-09-30T14:10:47.640Z,94188.09
2022-09-30T14:13:42.454Z,94187.13
2022-09-30T14:16:20.972Z,94196.78
2022-09-30T14:19:24.221Z,94200.59
2022-09-30T14:21:55.159Z,94203.97
2022-09-30T14:24:24.021Z,94192.94
2022-09-30T14:27:02.779Z,94207.81
2022-09-30T14:29:58.510Z,94201.69
2022-09-30T14:32:31.588Z,94197.09
2022-09-30T14:35:00.494Z,94203.38
2022-09-30T14:37:38.189Z,94215.38
2022-09-30T14:40:12.935Z,94207.91
2022-09-30T14:42:42.592Z,94214.31
2022-09-30T14:45:10.424Z,94219.72
2022-09-30T14:47:40.547Z,94221.69
2022-09-30T14:50:20.729Z,94221.50
2022-09-30T14:52:50.164Z,94227.03
2022-09-30T14:55:19.543Z,94225.19
2022-09-30T14:57:46.175Z,94226.63
2022-09-30T15:00:20.044Z,94230.34
2022-09-30T15:02:46.894Z,94229.44
2022-09-30T15:05:16.191Z,94234.22
2022-09-30T15:07:43.129Z,94226.47
2022-09-30T15:10:18.836Z,94225.91
2022-09-30T15:12:46.801Z,94230.66
2022-09-30T15:15:34.543Z,94230.16
2022-09-30T15:18:21.493Z,94231.97
2022-09-30T15:20:48.884Z,94237.44
2022-09-30T15:23:20.016Z,94241.88
2022-09-30T15:25:46.832Z,94253.66
2022-09-30T15:28:13.827Z,94255.16
2022-09-30T15:30:43.140Z,94256.09
2022-09-30T15:33:18.007Z,94257.47
2022-09-30T15:35:45.692Z,94271.47
2022-09-30T15:38:15.187Z,94270.38
2022-09-30T15:40:46.106Z,94276.28
2022-09-30T15:43:17.044Z,94278.38
2022-09-30T15:45:46.107Z,94285.28
2022-09-30T15:48:16.910Z,94279.22
2022-09-30T15:50:49.041Z,94291.03
2022-09-30T15:53:21.426Z,94291.94
2022-09-30T15:55:55.759Z,94292.09
2022-09-30T15:58:33.512Z,94304.38
2022-09-30T16:01:09.418Z,94301.88
2022-09-30T16:03:36.921Z,94304.31
2022-09-30T16:06:09.315Z,94311.94
2022-09-30T16:08:43.879Z,94321.03
2022-09-30T16:11:20.621Z,94325.59
2022-09-30T16:13:48.394Z,94324.56
2022-09-30T16:16:28.106Z,94319.38
2022-09-30T16:18:56.947Z,94321.69
2022-09-30T16:21:45.828Z,94323.28
2022-09-30T16:24:21.182Z,94327.34
2022-09-30T16:26:57.807Z,94327.03
2022-09-30T16:29:26.241Z,94323.50
2022-09-30T16:31:55.848Z,94324.63
2022-09-30T16:34:25.768Z,94330.22
2022-09-30T16:37:03.834Z,94328.84
2022-09-30T16:39:32.867Z,94328.53
2022-09-30T16:41:59.442Z,94331.38
2022-09-30T16:44:26.018Z,94339.06
2022-09-30T16:46:52.846Z,94342.25
2022-09-30T16:49:20.128Z,94346.03
2022-09-30T16:51:49.670Z,94341.78
2022-09-30T16:54:16.331Z,94346.75
2022-09-30T16:56:45.955Z,94349.38
2022-09-30T16:59:14.348Z,94342.63
2022-09-30T17:01:41.748Z,94352.47
2022-09-30T17:04:10.343Z,94353.44
2022-09-30T17:06:38.514Z,94348.28
2022-09-30T17:09:05.284Z,94357.34
2022-09-30T17:11:38.021Z,94355.19
2022-09-30T17:14:05.698Z,94348.38
2022-09-30T17:16:33.475Z,94354.69
2022-09-30T17:19:00.319Z,94349.63
2022-09-30T17:21:27.945Z,94351.66
2022-09-30T17:23:55.939Z,94349.09
2022-09-30T17:26:22.703Z,94348.41
2022-09-30T17:28:49.316Z,94351.13
2022-09-30T17:31:19.332Z,94350.81
2022-09-30T17:33:45.958Z,94364.72
2022-09-30T17:36:13.430Z,94361.25
2022-09-30T17:42:22.597Z,94362.94
2022-09-30T17:44:49.210Z,94378.09
2022-09-30T17:47:15.818Z,94375.50
2022-09-30T17:49:45.013Z,94385.31
2022-09-30T17:52:17.510Z,94381.06
2022-09-30T17:54:46.655Z,94382.69
2022-09-30T17:57:16.716Z,94379.88
2022-09-30T17:59:45.345Z,94383.19
2022-09-30T18:02:13.139Z,94382.41
2022-09-30T18:04:39.992Z,94395.16
2022-09-30T18:07:10.207Z,94394.38
2022-09-30T18:09:39.169Z,94402.59
2022-09-30T18:12:07.300Z,94397.63
2022-09-30T18:14:38.205Z,94399.59
2022-09-30T18:17:06.271Z,94410.06
2022-09-30T18:19:35.580Z,94403.81
2022-09-30T18:22:02.603Z,94414.09
2022-09-30T18:24:47.909Z,94407.34
2022-09-30T18:27:15.226Z,94413.16
2022-09-30T18:29:42.055Z,94411.22
2022-09-30T18:32:09.028Z,94410.06
2022-09-30T18:34:35.693Z,94404.63
2022-09-30T18:37:06.759Z,94404.22
2022-09-30T18:39:38.211Z,94413.19
2022-09-30T18:42:05.038Z,94417.44
2022-09-30T18:44:33.694Z,94415.53
2022-09-30T18:47:00.387Z,94408.91
2022-09-30T18:49:27.046Z,94418.41
2022-09-30T18:51:53.639Z,94418.72
2022-09-30T18:54:20.925Z,94419.47
2022-09-30T18:56:47.707Z,94426.44
2022-09-30T18:59:18.185Z,94424.97
2022-09-30T19:01:48.047Z,94424.81
2022-09-30T19:04:15.161Z,94427.13
2022-09-30T19:06:47.235Z,94430.09
2022-09-30T19:09:16.424Z,94427.94
2022-09-30T19:11:44.864Z,94428.25
2022-09-30T19:14:13.741Z,94422.06
2022-09-30T19:16:40.722Z,94431.41
2022-09-30T19:19:10.387Z,94425.59
2022-09-30T19:21:38.191Z,94424.31
2022-09-30T19:24:06.865Z,94430.72
2022-09-30T19:26:38.200Z,94431.66
2022-09-30T19:29:07.271Z,94437.78
2022-09-30T19:31:36.417Z,94447.00
2022-09-30T19:34:14.655Z,94437.34
2022-09-30T19:36:51.158Z,94436.59
2022-09-30T19:39:45.417Z,94449.31
2022-09-30T19:42:23.853Z,94452.31
2022-09-30T19:44:56.204Z,94451.34
2022-09-30T19:47:22.841Z,94449.31
2022-09-30T19:49:49.547Z,94442.25
2022-09-30T19:52:22.347Z,94443.41
2022-09-30T19:54:50.804Z,94453.16
2022-09-30T19:57:17.407Z,94446.09
2022-09-30T19:59:44.085Z,94457.38
2022-09-30T20:02:11.591Z,94443.44
2022-09-30T20:04:39.686Z,94450.88
2022-09-30T20:07:06.361Z,94454.38
2022-09-30T20:09:32.980Z,94447.38
2022-09-30T20:11:59.691Z,94447.94
2022-09-30T20:14:44.840Z,94444.41
2022-09-30T20:17:12.440Z,94450.22
2022-09-30T20:19:39.220Z,94457.22
2022-09-30T20:22:33.356Z,94460.34
2022-09-30T20:25:25.654Z,94467.34
2022-09-30T20:27:52.851Z,94460.34
2022-09-30T20:30:25.602Z,94458.44
2022-09-30T20:32:53.424Z,94468.50
2022-09-30T20:35:21.283Z,94469.69
2022-09-30T20:37:47.942Z,94465.91
2022-09-30T20:40:14.845Z,94464.00
2022-09-30T20:42:43.766Z,94461.66
2022-09-30T20:45:11.000Z,94467.84
2022-09-30T20:47:39.760Z,94462.03
2022-09-30T20:50:07.099Z,94470.13
2022-09-30T20:52:34.062Z,94476.34
2022-09-30T20:55:03.256Z,94475.50
2022-09-30T20:57:30.211Z,94478.94
2022-09-30T20:59:59.211Z,94477.41
2022-09-30T21:02:28.192Z,94471.22
2022-09-30T21:04:57.571Z,94480.56
2022-09-30T21:07:25.378Z,94480.31
2022-09-30T21:09:52.612Z,94482.88
2022-09-30T21:12:19.430Z,94480.25
2022-09-30T21:14:46.170Z,94481.09
2022-09-30T21:17:12.875Z,94476.84
2022-09-30T21:19:40.033Z,94483.38
2022-09-30T21:22:07.289Z,94492.28
2022-09-30T21:24:41.246Z,94488.78
2022-09-30T21:30:04.411Z,94484.53
2022-09-30T21:32:30.989Z,94495.75
2022-09-30T21:34:57.577Z,94497.66
2022-09-30T21:37:24.668Z,94487.59
2022-09-30T21:39:51.478Z,94489.94
2022-09-30T21:42:19.029Z,94491.50
2022-09-30T21:44:45.734Z,94496.59
2022-09-30T21:47:12.315Z,94503.19
2022-09-30T21:49:38.909Z,94505.91
2022-09-30T21:52:09.253Z,94514.09
2022-09-30T21:54:37.289Z,94511.78
2022-09-30T21:57:04.007Z,94512.13
2022-09-30T21:59:30.734Z,94497.78
2022-09-30T22:01:57.446Z,94504.38
2022-09-30T22:04:24.312Z,94513.31
2022-09-30T22:06:50.987Z,94510.25
2022-09-30T22:09:17.648Z,94510.25
2022-09-30T22:11:44.340Z,94532.72
2022-09-30T22:14:10.932Z,94531.94
2022-09-30T22:16:38.116Z,94540.84
2022-09-30T22:19:07.463Z,94537.34
2022-09-30T22:21:36.898Z,94553.97
2022-09-30T22:24:06.070Z,94546.25
2022-09-30T22:26:33.379Z,94553.56
2022-09-30T22:29:07.928Z,94541.22
2022-09-30T22:31:34.995Z,94546.25
2022-09-30T22:34:22.504Z,94523.06
2022-09-30T22:37:08.016Z,94538.13
2022-09-30T22:39:35.242Z,94553.22
2022-09-30T22:42:02.264Z,94536.19
2022-09-30T22:44:32.531Z,94539.69
2022-09-30T22:47:00.235Z,94550.91
2022-09-30T22:49:29.379Z,94528.06
2022-09-30T22:51:56.990Z,94541.47
2022-09-30T22:54:25.292Z,94552.72
2022-09-30T22:56:52.335Z,94551.16
2022-09-30T22:59:19.886Z,94552.03
2022-09-30T23:01:46.858Z,94547.78
2022-09-30T23:04:17.394Z,94559.78
2022-09-30T23:06:49.043Z,94552.44
2022-09-30T23:09:17.370Z,94547.81
2022-09-30T23:11:46.081Z,94551.66
2022-09-30T23:14:13.175Z,94563.28
2022-09-30T23:16:40.347Z,94567.13
2022-09-30T23:19:07.186Z,94572.50
2022-09-30T23:21:34.261Z,94565.16
2022-09-30T23:24:03.188Z,94574.47
2022-09-30T23:26:31.192Z,94570.59
2022-09-30T23:28:59.046Z,94568.66
2022-09-30T23:31:26.573Z,94577.19
2022-09-30T23:33:56.755Z,94579.13
2022-09-30T23:36:32.036Z,94577.56
2022-09-30T23:39:04.752Z,94576.75
2022-09-30T23:41:32.816Z,94580.75
2022-09-30T23:44:00.022Z,94566.22
2022-09-30T23:46:26.925Z,94568.53
2022-09-30T23:48:53.609Z,94557.03
2022-09-30T23:51:20.279Z,94567.50
2022-09-30T23:53:46.977Z,94560.53
2022-09-30T23:56:16.385Z,94553.19
2022-09-30T23:58:43.874Z,94555.53
